Terminal Aerodrome Forecast
Issued by NWS Cleveland, OH

Home | Current Version | Previous Version | Text Only | Print | Product List | Glossary Off
Versions: 1 2 3 4 5 6 7 8 9 10 11 12 13 14 15 16 17 18 19 20 21 22 23 24 25 26 27 28 29 30 31 32 33

000
FTUS41 KCLE 240500
TAFCLE
TAF
KCLE 240536Z 2406/2512 15008KT P6SM SCT025 OVC060
     FM240800 15007KT 6SM -RA BR SCT007 OVC025
     FM241000 15012KT 4SM -RA BR BKN007 OVC015
     FM241800 17015G25KT P6SM -SHRA OVC015
     FM242300 22025G45KT P6SM OVC025
     FM250800 24020G30KT P6SM OVC025=

USA.gov is the U.S. government's official web portal to all federal, state and local government web resources and services.